createdAt,value
2022-11-01T00:00:49.881Z,101043.41
2022-11-01T00:03:19.676Z,101036.53
2022-11-01T00:05:49.457Z,101024.31
2022-11-01T00:08:19.369Z,101017.47
2022-11-01T00:10:49.526Z,101009.13
2022-11-01T00:13:19.547Z,101008.31
2022-11-01T00:15:49.325Z,101000.97
2022-11-01T00:18:19.051Z,101001.44
2022-11-01T00:20:48.763Z,101005.19
2022-11-01T00:23:19.348Z,101005.03
2022-11-01T00:25:49.112Z,100997.34
2022-11-01T00:28:19.058Z,100994.72
2022-11-01T00:30:54.574Z,100987.38
2022-11-01T00:33:25.935Z,100995.53
2022-11-01T00:35:54.501Z,101009.78
2022-11-01T00:38:24.304Z,101016.00
2022-11-01T00:40:53.985Z,101020.44
2022-11-01T00:43:24.296Z,101016.16
2022-11-01T00:45:54.297Z,101014.19
2022-11-01T00:48:24.418Z,101015.31
2022-11-01T00:50:54.909Z,101011.03
2022-11-01T00:53:24.731Z,101014.94
2022-11-01T00:56:02.374Z,101010.66
2022-11-01T00:58:32.281Z,100999.50
2022-11-01T01:01:03.062Z,100985.47
2022-11-01T01:03:32.484Z,100976.47
2022-11-01T01:06:02.596Z,100964.25
2022-11-01T01:08:32.713Z,100959.19
2022-11-01T01:11:02.506Z,100957.09
2022-11-01T01:13:32.403Z,100938.78
2022-11-01T01:16:09.741Z,100939.75
2022-11-01T01:18:40.820Z,100932.59
2022-11-01T01:21:10.248Z,100928.81
2022-11-01T01:23:40.035Z,100924.88
2022-11-01T01:26:11.766Z,100936.50
2022-11-01T01:28:43.788Z,100941.75
2022-11-01T01:31:14.917Z,100951.56
2022-11-01T01:33:44.705Z,100957.13
2022-11-01T01:36:15.577Z,100948.78
2022-11-01T01:38:44.667Z,100944.69
2022-11-01T01:41:32.937Z,100947.28
2022-11-01T01:44:03.633Z,100951.69
2022-11-01T01:46:33.632Z,100949.38
2022-11-01T01:49:03.309Z,100953.63
2022-11-01T01:51:33.175Z,100940.34
2022-11-01T01:54:02.959Z,100938.22
2022-11-01T01:56:37.881Z,100939.63
2022-11-01T01:59:11.159Z,100929.78
2022-11-01T02:01:42.173Z,100934.97
2022-11-01T02:04:50.925Z,100926.31
2022-11-01T02:07:19.677Z,100916.00
2022-11-01T02:09:49.764Z,100914.50
2022-11-01T02:12:19.930Z,100916.38
2022-11-01T02:14:49.481Z,100908.53
2022-11-01T02:18:17.419Z,100904.91
2022-11-01T02:21:28.932Z,100908.94
2022-11-01T02:24:46.711Z,100903.03
2022-11-01T02:28:01.158Z,100894.84
2022-11-01T02:31:30.097Z,100881.94
2022-11-01T02:34:59.056Z,100879.91
2022-11-01T02:38:33.758Z,100888.25
2022-11-01T02:41:25.549Z,100868.13
2022-11-01T02:44:25.175Z,100863.53
2022-11-01T02:47:02.808Z,100862.75
2022-11-01T02:49:47.767Z,100851.50
2022-11-01T02:52:28.434Z,100863.59
2022-11-01T02:55:07.305Z,100856.53
2022-11-01T02:57:41.594Z,100870.66
2022-11-01T03:00:36.217Z,100878.84
2022-11-01T03:03:36.268Z,100876.84
2022-11-01T03:06:08.948Z,100875.66
2022-11-01T03:08:59.262Z,100875.13
2022-11-01T03:12:01.788Z,100875.47
2022-11-01T03:15:01.296Z,100878.75
2022-11-01T03:17:59.377Z,100868.81
2022-11-01T03:20:49.274Z,100876.47
2022-11-01T03:23:45.930Z,100880.84
2022-11-01T03:26:28.843Z,100889.28
2022-11-01T03:29:09.250Z,100882.44
2022-11-01T03:31:44.244Z,100886.78
2022-11-01T03:34:20.433Z,100871.41
2022-11-01T03:37:01.159Z,100871.88
2022-11-01T03:39:48.321Z,100872.19
2022-11-01T03:42:24.906Z,100872.50
2022-11-01T03:45:09.403Z,100867.59
2022-11-01T03:47:39.587Z,100861.53
2022-11-01T03:50:24.513Z,100861.03
2022-11-01T03:52:55.953Z,100863.28
2022-11-01T03:55:26.617Z,100865.09
2022-11-01T03:58:00.664Z,100874.53
2022-11-01T04:00:38.272Z,100862.13
2022-11-01T04:03:11.055Z,100853.63
2022-11-01T04:05:43.080Z,100859.78
2022-11-01T04:08:13.128Z,100848.81
2022-11-01T04:10:44.832Z,100852.09
2022-11-01T04:13:14.951Z,100854.56
2022-11-01T04:16:03.647Z,100850.53
2022-11-01T04:18:52.364Z,100860.81
2022-11-01T04:21:26.568Z,100877.75
2022-11-01T04:23:56.656Z,100875.06
2022-11-01T04:26:27.288Z,100878.78
2022-11-01T04:28:57.783Z,100870.31
2022-11-01T04:31:36.824Z,100873.19
2022-11-01T04:34:06.810Z,100863.75
2022-11-01T04:36:38.495Z,100869.06
2022-11-01T04:39:09.343Z,100862.94
2022-11-01T04:41:39.501Z,100857.94
2022-11-01T04:44:09.526Z,100861.88
2022-11-01T04:46:39.524Z,100854.97
2022-11-01T04:49:09.628Z,100851.34
2022-11-01T04:51:41.598Z,100858.69
2022-11-01T04:54:11.823Z,100850.59
2022-11-01T04:56:41.825Z,100852.00
2022-11-01T04:59:11.839Z,100846.66
2022-11-01T05:01:41.983Z,100847.69
2022-11-01T05:04:12.106Z,100845.75
2022-11-01T05:06:42.177Z,100846.91
2022-11-01T05:09:12.181Z,100837.41
2022-11-01T05:11:42.175Z,100844.31
2022-11-01T05:14:12.308Z,100843.47
2022-11-01T05:16:42.328Z,100838.56
2022-11-01T05:19:12.403Z,100833.84
2022-11-01T05:21:42.509Z,100805.50
2022-11-01T05:24:12.511Z,100810.59
2022-11-01T05:26:44.854Z,100828.22
2022-11-01T05:32:05.126Z,100813.50
2022-11-01T05:34:35.131Z,100827.53
2022-11-01T05:37:05.139Z,100819.84
2022-11-01T05:39:35.211Z,100832.25
2022-11-01T05:42:09.628Z,100842.53
2022-11-01T05:44:39.961Z,100820.97
2022-11-01T05:47:12.218Z,100816.44
2022-11-01T05:49:46.272Z,100813.66
2022-11-01T05:52:16.271Z,100825.25
2022-11-01T05:54:46.298Z,100828.97
2022-11-01T05:57:16.306Z,100842.34
2022-11-01T05:59:46.314Z,100842.66
2022-11-01T06:02:16.515Z,100834.03
2022-11-01T06:04:46.564Z,100839.06
2022-11-01T06:07:16.824Z,100831.88
2022-11-01T06:09:49.540Z,100837.25
2022-11-01T06:12:19.863Z,100829.44
2022-11-01T06:14:49.861Z,100821.63
2022-11-01T06:17:19.952Z,100831.78
2022-11-01T06:19:49.982Z,100839.75
2022-11-01T06:22:20.014Z,100819.84
2022-11-01T06:24:52.579Z,100813.47
2022-11-01T06:27:22.610Z,100815.94
2022-11-01T06:29:52.616Z,100807.31
2022-11-01T06:32:23.243Z,100824.13
2022-11-01T06:34:53.380Z,100827.38
2022-11-01T06:37:23.434Z,100818.25
2022-11-01T06:39:53.443Z,100832.28
2022-11-01T06:42:25.086Z,100839.03
2022-11-01T06:44:55.083Z,100849.97
2022-11-01T06:47:25.849Z,100826.63
2022-11-01T06:49:55.966Z,100823.22
2022-11-01T06:52:26.026Z,100825.84
2022-11-01T06:54:56.118Z,100821.28
2022-11-01T06:57:27.350Z,100827.66
2022-11-01T06:59:58.482Z,100840.06
2022-11-01T07:02:29.905Z,100846.28
2022-11-01T07:05:00.337Z,100856.59
2022-11-01T07:07:30.335Z,100865.91
2022-11-01T07:10:01.313Z,100865.59
2022-11-01T07:12:31.355Z,100854.69
2022-11-01T07:15:01.950Z,100846.72
2022-11-01T07:17:31.993Z,100849.28
2022-11-01T07:20:02.072Z,100845.59
2022-11-01T07:22:32.070Z,100877.91
2022-11-01T07:25:02.110Z,100888.84
2022-11-01T07:27:35.902Z,100882.63
2022-11-01T07:30:07.869Z,100891.66
2022-11-01T07:32:39.027Z,100892.44
2022-11-01T07:35:10.496Z,100882.69
2022-11-01T07:37:41.061Z,100894.13
2022-11-01T07:40:13.115Z,100894.13
2022-11-01T07:42:45.945Z,100897.41
2022-11-01T07:45:17.469Z,100894.13
2022-11-01T07:47:48.017Z,100889.56
2022-11-01T07:50:19.488Z,100898.88
2022-11-01T07:52:59.507Z,100905.75
2022-11-01T07:55:29.661Z,100923.09
2022-11-01T07:57:59.914Z,100931.25
2022-11-01T08:00:30.643Z,100934.38
2022-11-01T08:03:17.462Z,100931.75
2022-11-01T08:05:48.991Z,100937.66
2022-11-01T08:08:21.986Z,100937.34
2022-11-01T08:10:52.052Z,100948.28
2022-11-01T08:13:26.670Z,100937.47
2022-11-01T08:16:00.121Z,100930.47
2022-11-01T08:18:30.455Z,100943.53
2022-11-01T08:21:00.502Z,100949.25
2022-11-01T08:23:30.500Z,100941.19
2022-11-01T08:26:00.572Z,100929.53
2022-11-01T08:28:30.727Z,100933.59
2022-11-01T08:31:10.590Z,100938.34
2022-11-01T08:33:40.598Z,100934.72
2022-11-01T08:36:10.608Z,100938.63
2022-11-01T08:38:40.639Z,100930.38
2022-11-01T08:41:10.653Z,100924.94
2022-11-01T08:43:40.975Z,100927.34
2022-11-01T08:46:11.097Z,100928.13
2022-11-01T08:48:41.150Z,100921.66
2022-11-01T08:51:11.175Z,100920.66
2022-11-01T08:53:41.200Z,100916.53
2022-11-01T08:56:11.899Z,100912.56
2022-11-01T08:58:42.034Z,100923.50
2022-11-01T09:01:12.792Z,100919.31
2022-11-01T09:03:42.997Z,100926.38
2022-11-01T09:06:14.405Z,100920.88
2022-11-01T09:08:44.528Z,100923.66
2022-11-01T09:11:14.622Z,100912.88
2022-11-01T09:13:44.796Z,100913.06
2022-11-01T09:16:15.118Z,100928.97
2022-11-01T09:18:45.781Z,100911.75
2022-11-01T09:21:17.251Z,100913.44
2022-11-01T09:23:47.548Z,100903.91
2022-11-01T09:26:17.814Z,100914.72
2022-11-01T09:28:47.892Z,100924.22
2022-11-01T09:31:21.766Z,100928.53
2022-11-01T09:33:57.361Z,100943.19
2022-11-01T09:36:29.882Z,100953.03
2022-11-01T09:39:00.026Z,100955.72
2022-11-01T09:42:02.005Z,100960.63
2022-11-01T09:44:49.929Z,100956.16
2022-11-01T09:47:30.317Z,100957.88
2022-11-01T09:50:27.120Z,100969.41
2022-11-01T09:53:00.039Z,100966.75
2022-11-01T09:56:10.408Z,100969.38
2022-11-01T09:59:24.572Z,100964.38
2022-11-01T10:02:50.309Z,100963.69
2022-11-01T10:05:58.577Z,100949.06
2022-11-01T10:09:22.342Z,100949.72
2022-11-01T10:12:41.547Z,100946.25
2022-11-01T10:15:22.917Z,100955.56
2022-11-01T10:18:06.145Z,100948.25
2022-11-01T10:20:41.692Z,100957.09
2022-11-01T10:23:24.725Z,100950.94
2022-11-01T10:25:55.003Z,100947.34
2022-11-01T10:28:46.439Z,100960.72
2022-11-01T10:31:24.749Z,100962.25
2022-11-01T10:34:20.808Z,100966.56
2022-11-01T10:37:01.122Z,100961.09
2022-11-01T10:39:57.949Z,100959.56
2022-11-01T10:42:34.073Z,100957.59
2022-11-01T10:45:15.785Z,100958.84
2022-11-01T10:47:58.467Z,100960.47
2022-11-01T10:50:31.055Z,100950.81
2022-11-01T10:53:13.431Z,100962.41
2022-11-01T10:55:57.747Z,100963.31
2022-11-01T10:59:10.514Z,100967.97
2022-11-01T11:01:45.168Z,100969.16
2022-11-01T11:04:23.520Z,100972.38
2022-11-01T11:06:53.807Z,100975.81
2022-11-01T11:09:31.145Z,100979.19
2022-11-01T11:12:20.164Z,100982.78
2022-11-01T11:15:04.096Z,100985.94
2022-11-01T11:17:45.048Z,100990.84
2022-11-01T11:20:26.476Z,101006.38
2022-11-01T11:23:03.081Z,101003.41
2022-11-01T11:25:37.428Z,101000.22
2022-11-01T11:28:32.938Z,101003.56
2022-11-01T11:31:31.901Z,100995.72
2022-11-01T11:34:35.388Z,101001.94
2022-11-01T11:37:21.669Z,101005.63
2022-11-01T11:40:15.932Z,101000.47
2022-11-01T11:42:54.175Z,101006.94
2022-11-01T11:45:31.308Z,101005.22
2022-11-01T11:48:24.083Z,101009.56
2022-11-01T11:51:05.769Z,101003.28
2022-11-01T11:53:35.837Z,101011.47
2022-11-01T11:56:09.372Z,101006.75
2022-11-01T11:58:48.724Z,101007.09
2022-11-01T12:01:26.829Z,101010.50
2022-11-01T12:04:12.186Z,101016.25
2022-11-01T12:06:46.996Z,101011.34
2022-11-01T12:09:48.113Z,101013.56
2022-11-01T12:12:27.208Z,101010.09
2022-11-01T12:15:00.535Z,101014.00
2022-11-01T12:17:47.119Z,101013.44
2022-11-01T12:20:26.790Z,101013.66
2022-11-01T12:23:21.686Z,101014.25
2022-11-01T12:25:54.386Z,101012.72
2022-11-01T12:28:48.243Z,101014.25
2022-11-01T12:31:22.253Z,101015.03
2022-11-01T12:34:25.985Z,101021.75
2022-11-01T12:37:31.604Z,101014.06
2022-11-01T12:40:26.815Z,101019.75
2022-11-01T12:43:21.351Z,101021.16
2022-11-01T12:45:59.788Z,101020.34
2022-11-01T12:48:38.803Z,101026.19
2022-11-01T12:51:27.058Z,101014.06
2022-11-01T12:54:12.229Z,101019.94
2022-11-01T12:56:45.081Z,101020.31
2022-11-01T12:59:34.099Z,101027.31
2022-11-01T13:02:49.466Z,101034.78
2022-11-01T13:05:45.031Z,101039.31
2022-11-01T13:08:59.187Z,101029.63
2022-11-01T13:12:10.090Z,101032.31
2022-11-01T13:14:55.358Z,101027.59
2022-11-01T13:18:28.254Z,101027.22
2022-11-01T13:21:34.562Z,101033.75
2022-11-01T13:24:35.660Z,101026.16
2022-11-01T13:27:30.922Z,101038.03
2022-11-01T13:30:14.922Z,101026.81
2022-11-01T13:33:39.310Z,101026.66
2022-11-01T13:37:06.109Z,101035.00
2022-11-01T13:40:12.651Z,101046.66
2022-11-01T13:43:11.854Z,101040.63
2022-11-01T13:46:03.296Z,101033.41
2022-11-01T13:48:57.307Z,101025.47
2022-11-01T13:52:03.152Z,101022.38
2022-11-01T13:55:15.946Z,101039.44
2022-11-01T13:57:46.846Z,101041.25
2022-11-01T14:00:52.515Z,101045.66
2022-11-01T14:03:29.745Z,101045.69
2022-11-01T14:06:08.381Z,101040.72
2022-11-01T14:08:48.472Z,101040.97
2022-11-01T14:11:51.070Z,101044.03
2022-11-01T14:14:29.875Z,101043.22
2022-11-01T14:17:18.952Z,101045.88
2022-11-01T14:20:00.754Z,101051.16
2022-11-01T14:22:33.763Z,101049.41
2022-11-01T14:25:23.600Z,101060.41
2022-11-01T14:28:18.368Z,101053.41
2022-11-01T14:30:53.438Z,101060.63
2022-11-01T14:33:23.954Z,101061.44
2022-11-01T14:35:58.550Z,101058.16
2022-11-01T14:39:00.798Z,101056.66
2022-11-01T14:41:41.118Z,101072.16
2022-11-01T14:44:34.899Z,101071.00
2022-11-01T14:47:43.812Z,101069.50
2022-11-01T14:50:46.083Z,101077.81
2022-11-01T14:53:41.422Z,101069.91
2022-11-01T14:56:11.353Z,101077.69
2022-11-01T14:58:41.627Z,101076.31
2022-11-01T15:01:23.647Z,101089.72
2022-11-01T15:04:00.462Z,101081.91
2022-11-01T15:06:31.436Z,101082.00
2022-11-01T15:09:04.270Z,101083.06
2022-11-01T15:11:35.788Z,101088.53
2022-11-01T15:14:09.015Z,101079.53
2022-11-01T15:16:43.908Z,101088.63
2022-11-01T15:19:28.022Z,101087.41
2022-11-01T15:22:03.511Z,101086.22
2022-11-01T15:24:35.487Z,101088.03
2022-11-01T15:27:21.294Z,101090.56
2022-11-01T15:29:51.817Z,101096.09
2022-11-01T15:32:35.542Z,101098.34
2022-11-01T15:35:26.753Z,101103.84
2022-11-01T15:37:57.965Z,101099.84
2022-11-01T15:40:37.258Z,101101.41
2022-11-01T15:43:07.389Z,101104.44
2022-11-01T15:45:38.780Z,101101.19
2022-11-01T15:48:20.607Z,101110.47
2022-11-01T15:51:03.335Z,101106.56
2022-11-01T15:53:39.320Z,101108.09
2022-11-01T15:56:22.950Z,101109.31
2022-11-01T15:59:04.188Z,101114.59
2022-11-01T16:01:34.606Z,101113.31
2022-11-01T16:04:12.855Z,101103.84
2022-11-01T16:07:01.958Z,101105.00
2022-11-01T16:09:37.536Z,101107.50
2022-11-01T16:12:24.198Z,101108.81
2022-11-01T16:15:08.056Z,101109.63
2022-11-01T16:17:42.344Z,101113.59
2022-11-01T16:20:40.933Z,101114.50
2022-11-01T16:23:28.891Z,101120.88
2022-11-01T16:26:11.965Z,101118.28
2022-11-01T16:28:46.453Z,101120.56
2022-11-01T16:31:28.986Z,101127.44
2022-11-01T16:33:58.934Z,101132.84
2022-11-01T16:36:31.831Z,101135.13
2022-11-01T16:39:02.334Z,101143.13
2022-11-01T16:41:39.916Z,101146.59
2022-11-01T16:44:16.296Z,101143.63
2022-11-01T16:46:46.533Z,101150.16
2022-11-01T16:49:31.882Z,101146.88
2022-11-01T16:52:01.364Z,101149.97
2022-11-01T16:54:31.346Z,101151.47
2022-11-01T16:57:03.772Z,101151.16
2022-11-01T16:59:35.613Z,101157.34
2022-11-01T17:02:30.039Z,101165.16
2022-11-01T17:05:21.223Z,101154.19
2022-11-01T17:07:49.369Z,101160.06
2022-11-01T17:10:25.738Z,101157.94
2022-11-01T17:12:57.864Z,101172.47
2022-11-01T17:15:29.294Z,101170.16
2022-11-01T17:18:12.711Z,101175.38
2022-11-01T17:20:46.520Z,101180.91
2022-11-01T17:23:24.168Z,101185.78
2022-11-01T17:25:56.210Z,101188.88
2022-11-01T17:28:26.685Z,101187.88
2022-11-01T17:30:57.637Z,101194.22
2022-11-01T17:33:27.657Z,101190.94
2022-11-01T17:36:00.850Z,101199.94
2022-11-01T17:38:34.804Z,101208.41
2022-11-01T17:41:11.001Z,101201.84
2022-11-01T17:43:41.028Z,101205.06
2022-11-01T17:46:24.195Z,101204.38
2022-11-01T17:48:54.181Z,101213.69
2022-11-01T17:51:24.297Z,101212.97
2022-11-01T17:53:59.020Z,101217.81
2022-11-01T17:56:29.370Z,101212.91
2022-11-01T17:58:59.547Z,101219.53
2022-11-01T18:01:30.557Z,101219.41
2022-11-01T18:04:00.798Z,101220.38
2022-11-01T18:06:30.795Z,101217.53
2022-11-01T18:09:00.897Z,101224.31
2022-11-01T18:12:33.321Z,101227.53
2022-11-01T18:15:42.849Z,101222.91
2022-11-01T18:18:53.746Z,101226.00
2022-11-01T18:21:32.320Z,101228.59
2022-11-01T18:24:18.377Z,101233.13
2022-11-01T18:26:51.623Z,101242.03
2022-11-01T18:29:23.696Z,101238.97
2022-11-01T18:32:26.049Z,101239.09
2022-11-01T18:36:11.948Z,101241.13
2022-11-01T18:38:59.358Z,101241.56
2022-11-01T18:41:27.516Z,101240.00
2022-11-01T18:43:57.880Z,101245.13
2022-11-01T18:46:50.471Z,101249.34
2022-11-01T18:49:28.266Z,101243.28
2022-11-01T18:51:58.842Z,101244.22
2022-11-01T18:54:33.142Z,101238.16
2022-11-01T18:57:17.382Z,101242.47
2022-11-01T18:59:52.983Z,101243.69
2022-11-01T19:02:31.230Z,101252.00
2022-11-01T19:05:20.169Z,101265.22
2022-11-01T19:08:11.295Z,101263.91
2022-11-01T19:10:42.430Z,101265.34
2022-11-01T19:13:31.637Z,101262.66
2022-11-01T19:16:03.129Z,101268.28
2022-11-01T19:18:36.119Z,101271.97
2022-11-01T19:21:18.875Z,101267.84
2022-11-01T19:23:56.410Z,101263.75
2022-11-01T19:26:36.708Z,101261.06
2022-11-01T19:29:20.243Z,101269.78
2022-11-01T19:32:02.410Z,101269.03
2022-11-01T19:34:40.786Z,101266.03
2022-11-01T19:37:33.044Z,101269.41
2022-11-01T19:40:27.970Z,101276.69
2022-11-01T19:43:12.677Z,101273.97
2022-11-01T19:45:56.263Z,101273.47
2022-11-01T19:48:30.710Z,101274.06
2022-11-01T19:51:00.141Z,101283.88
2022-11-01T19:53:37.942Z,101280.34
2022-11-01T19:56:26.302Z,101279.59
2022-11-01T19:59:00.428Z,101278.53
2022-11-01T20:01:45.459Z,101274.13
2022-11-01T20:04:29.176Z,101278.00
2022-11-01T20:07:13.845Z,101283.03
2022-11-01T20:09:43.398Z,101290.50
2022-11-01T20:12:21.998Z,101284.75
2022-11-01T20:14:52.365Z,101288.94
2022-11-01T20:17:22.366Z,101293.13
2022-11-01T20:19:53.761Z,101289.53
2022-11-01T20:22:24.216Z,101292.31
2022-11-01T20:24:54.194Z,101294.03
2022-11-01T20:27:24.308Z,101286.31
2022-11-01T20:29:54.333Z,101288.03
2022-11-01T20:32:24.416Z,101296.31
2022-11-01T20:34:54.467Z,101299.09
2022-11-01T20:37:29.257Z,101306.28
2022-11-01T20:39:57.771Z,101303.56
2022-11-01T20:42:27.084Z,101305.50
2022-11-01T20:44:56.809Z,101296.16
2022-11-01T20:47:26.827Z,101301.16
2022-11-01T20:49:56.982Z,101299.91
2022-11-01T20:52:39.271Z,101311.53
2022-11-01T20:55:13.247Z,101307.13
2022-11-01T20:57:42.891Z,101315.19
2022-11-01T21:00:15.980Z,101313.00
2022-11-01T21:02:48.137Z,101316.06
2022-11-01T21:05:25.648Z,101312.53
2022-11-01T21:08:15.734Z,101308.44
2022-11-01T21:10:45.824Z,101312.38
2022-11-01T21:13:24.547Z,101315.41
2022-11-01T21:15:59.528Z,101315.69
2022-11-01T21:18:44.484Z,101312.44
2022-11-01T21:21:14.324Z,101308.28
2022-11-01T21:23:46.276Z,101306.69
2022-11-01T21:26:22.870Z,101305.88
2022-11-01T21:29:02.712Z,101306.69
2022-11-01T21:31:39.037Z,101312.81
2022-11-01T21:34:12.033Z,101319.16
2022-11-01T21:36:52.414Z,101311.47
2022-11-01T21:39:33.097Z,101309.00
2022-11-01T21:42:30.401Z,101291.59
2022-11-01T21:45:28.742Z,101287.53
2022-11-01T21:48:16.588Z,101287.59
2022-11-01T21:50:46.806Z,101291.22
2022-11-01T21:53:16.867Z,101293.75
2022-11-01T21:55:46.691Z,101290.16
2022-11-01T21:58:16.501Z,101289.84
2022-11-01T22:00:46.203Z,101303.38
2022-11-01T22:03:16.091Z,101293.75
2022-11-01T22:05:45.694Z,101300.38
2022-11-01T22:08:15.400Z,101300.69
2022-11-01T22:10:45.106Z,101293.50
2022-11-01T22:13:15.242Z,101295.69
2022-11-01T22:15:44.688Z,101299.03
2022-11-01T22:18:14.374Z,101301.25
2022-11-01T22:20:44.161Z,101308.19
2022-11-01T22:23:13.868Z,101298.53
2022-11-01T22:25:43.689Z,101305.47
2022-11-01T22:28:13.672Z,101305.78
2022-11-01T22:30:46.233Z,101308.03
2022-11-01T22:33:16.172Z,101308.88
2022-11-01T22:35:43.805Z,101299.72
2022-11-01T22:38:25.504Z,101303.69
2022-11-01T22:41:05.184Z,101310.03
2022-11-01T22:43:39.075Z,101309.47
2022-11-01T22:46:57.990Z,101310.88
2022-11-01T22:49:43.348Z,101308.16
2022-11-01T22:52:29.663Z,101294.06
2022-11-01T22:55:11.127Z,101301.22
2022-11-01T22:58:28.689Z,101303.75
2022-11-01T23:01:02.426Z,101300.75
2022-11-01T23:03:41.886Z,101298.25
2022-11-01T23:06:35.058Z,101296.91
2022-11-01T23:09:18.934Z,101297.72
2022-11-01T23:12:15.675Z,101302.44
2022-11-01T23:14:45.886Z,101301.88
2022-11-01T23:17:26.466Z,101295.28
2022-11-01T23:20:01.636Z,101296.69
2022-11-01T23:22:36.700Z,101304.19
2022-11-01T23:25:09.374Z,101300.88
2022-11-01T23:27:45.000Z,101305.59
2022-11-01T23:30:15.046Z,101302.56
2022-11-01T23:32:45.068Z,101300.41
2022-11-01T23:35:22.142Z,101303.44
2022-11-01T23:37:58.162Z,101308.19
2022-11-01T23:40:33.923Z,101300.75
2022-11-01T23:43:02.568Z,101301.59
2022-11-01T23:45:34.948Z,101297.97
2022-11-01T23:48:05.129Z,101296.63
2022-11-01T23:50:37.368Z,101303.81
2022-11-01T23:53:15.682Z,101303.53
2022-11-01T23:55:52.201Z,101309.34
2022-11-01T23:58:33.165Z,101307.44
